createdAt,value
2019-05-06T00:00:07.246Z,5.60
2019-05-06T00:02:43.596Z,6.00
2019-05-06T00:05:18.062Z,5.80
2019-05-06T00:07:57.476Z,5.70
2019-05-06T00:10:34.381Z,5.45
2019-05-06T00:13:08.647Z,5.25
2019-05-06T00:15:43.651Z,5.62
2019-05-06T00:18:18.154Z,5.92
2019-05-06T00:20:54.752Z,5.47
2019-05-06T00:23:35.332Z,6.00
2019-05-06T00:26:45.151Z,5.70
2019-05-06T03:33:21.578Z,5.35
2019-05-06T03:35:40.527Z,17.20
2019-05-06T03:37:55.872Z,16.05
2019-05-06T03:40:29.875Z,16.25
2019-05-06T03:43:04.071Z,17.40
2019-05-06T03:45:57.004Z,17.82
2019-05-06T03:48:34.962Z,16.93
2019-05-06T03:51:09.148Z,17.98
2019-05-06T03:53:45.840Z,16.85
2019-05-06T03:56:23.596Z,16.32
2019-05-06T03:58:59.090Z,16.77
2019-05-06T04:01:33.772Z,15.72
2019-05-06T04:04:08.331Z,15.88
2019-05-06T04:06:43.695Z,15.68
2019-05-06T04:09:18.212Z,16.57
2019-05-06T04:11:54.126Z,15.68
2019-05-06T04:14:29.990Z,15.98
2019-05-06T04:17:25.580Z,15.55
2019-05-06T04:20:12.749Z,15.50
2019-05-06T04:23:13.381Z,16.17
2019-05-06T04:26:03.571Z,15.13
2019-05-06T04:28:38.734Z,15.93
2019-05-06T04:31:13.465Z,14.80
2019-05-06T04:34:05.253Z,14.70
2019-05-06T04:36:25.190Z,14.93
2019-05-06T04:38:59.608Z,15.90
2019-05-06T04:41:34.499Z,15.32
2019-05-06T04:44:13.938Z,15.08
2019-05-06T04:46:48.215Z,15.08
2019-05-06T04:49:23.688Z,35.75
2019-05-06T04:52:03.439Z,23.38
2019-05-06T04:54:36.886Z,23.80
2019-05-06T04:57:12.876Z,22.48
2019-05-06T04:59:48.225Z,24.15
2019-05-06T05:02:23.123Z,24.02
2019-05-06T05:04:57.387Z,24.65
2019-05-06T05:07:33.441Z,23.35
2019-05-06T05:10:15.483Z,23.42
2019-05-06T05:13:27.282Z,22.67
2019-05-06T06:32:55.998Z,22.42
2019-05-06T06:35:46.812Z,13.55
2019-05-06T06:38:25.925Z,13.43
2019-05-06T06:41:02.550Z,12.70
2019-05-06T06:43:36.959Z,12.37
2019-05-06T06:46:12.647Z,12.07
2019-05-06T06:48:47.036Z,11.40
2019-05-06T06:51:23.350Z,12.33
2019-05-06T06:53:57.704Z,11.80
2019-05-06T06:57:04.683Z,11.05
2019-05-06T06:59:58.906Z,10.90
2019-05-06T07:02:59.541Z,10.85
2019-05-06T07:05:42.429Z,10.68
2019-05-06T07:08:31.386Z,10.38
2019-05-06T07:10:53.486Z,9.95
2019-05-06T07:13:28.098Z,9.73
2019-05-06T07:16:03.043Z,10.13
2019-05-06T07:18:37.251Z,10.00
2019-05-06T07:21:30.725Z,9.45
2019-05-06T07:24:06.473Z,9.43
2019-05-06T07:26:47.770Z,8.83
2019-05-06T07:29:26.635Z,9.18
2019-05-06T07:32:02.510Z,9.88
2019-05-06T07:34:36.273Z,9.10
2019-05-06T07:37:12.527Z,8.75
2019-05-06T07:39:47.686Z,8.40
2019-05-06T07:42:28.030Z,8.88
2019-05-06T07:45:17.545Z,7.97
2019-05-06T07:48:09.651Z,8.73
2019-05-06T07:50:43.741Z,8.40
2019-05-06T07:53:19.156Z,8.78
2019-05-06T07:55:53.311Z,8.63
2019-05-06T07:58:28.785Z,8.10
2019-05-06T08:01:03.113Z,8.55
2019-05-06T08:03:37.463Z,8.08
2019-05-06T08:06:13.259Z,8.20
2019-05-06T08:08:47.101Z,8.43
2019-05-06T08:11:22.290Z,8.28
2019-05-06T08:13:57.896Z,7.80
2019-05-06T08:16:33.816Z,7.20
2019-05-06T08:19:08.262Z,7.70
2019-05-06T08:21:44.398Z,7.58
2019-05-06T08:24:19.443Z,7.72
2019-05-06T08:26:54.945Z,7.40
2019-05-06T08:29:29.299Z,7.78
2019-05-06T08:32:03.519Z,7.25
2019-05-06T08:34:38.034Z,7.55
2019-05-06T08:37:32.103Z,7.40
2019-05-06T08:40:07.052Z,7.20
2019-05-06T08:42:42.600Z,7.53
2019-05-06T08:45:17.230Z,7.37
2019-05-06T08:47:52.398Z,7.28
2019-05-06T08:50:55.039Z,7.62
2019-05-06T08:53:34.140Z,6.60
2019-05-06T08:56:12.586Z,6.85
2019-05-06T08:58:47.395Z,6.70
2019-05-06T09:01:42.399Z,6.35
2019-05-06T09:04:16.868Z,6.50
2019-05-06T09:06:53.428Z,6.35
2019-05-06T09:09:27.531Z,5.92
2019-05-06T09:12:02.676Z,6.10
2019-05-06T09:14:36.893Z,6.55
2019-05-06T09:17:12.040Z,6.15
2019-05-06T09:19:46.398Z,5.70
2019-05-06T09:22:20.725Z,5.65
2019-05-06T09:24:54.812Z,5.85
2019-05-06T09:27:48.002Z,5.37
2019-05-06T09:30:33.107Z,5.20
2019-05-06T09:33:07.563Z,5.30
2019-05-06T09:35:42.296Z,5.22
2019-05-06T09:38:16.786Z,5.37
2019-05-06T09:40:52.531Z,4.87
2019-05-06T09:43:26.729Z,5.00
2019-05-06T09:46:02.293Z,4.70
2019-05-06T09:48:53.885Z,4.87
2019-05-06T09:51:28.096Z,5.15
2019-05-06T09:54:27.046Z,4.80
2019-05-06T09:57:05.425Z,5.42
2019-05-06T09:59:42.038Z,4.75
2019-05-06T10:02:16.408Z,4.30
2019-05-06T10:04:52.249Z,4.20
2019-05-06T10:07:26.553Z,4.55
2019-05-06T10:10:00.644Z,4.42
2019-05-06T10:12:35.499Z,4.85
2019-05-06T10:15:12.599Z,4.33
2019-05-06T10:17:48.354Z,4.33
2019-05-06T10:20:22.533Z,4.50
2019-05-06T10:22:56.926Z,5.05
2019-05-06T10:25:31.238Z,4.33
2019-05-06T10:28:07.966Z,4.85
2019-05-06T10:30:42.354Z,4.58
2019-05-06T10:33:19.578Z,4.45
2019-05-06T10:35:53.985Z,4.42
2019-05-06T10:38:52.911Z,4.37
2019-05-06T10:41:30.095Z,4.15
2019-05-06T10:44:45.200Z,4.40
2019-05-06T10:47:19.465Z,4.30
2019-05-06T10:49:53.428Z,4.70
2019-05-06T10:52:33.292Z,4.35
2019-05-06T10:55:07.903Z,4.28
2019-05-06T10:57:45.760Z,4.40
2019-05-06T11:00:23.091Z,4.47
2019-05-06T11:03:15.683Z,4.30
2019-05-06T11:08:22.249Z,4.30
2019-05-06T11:10:56.295Z,4.28
2019-05-06T11:13:32.273Z,4.22
2019-05-06T11:16:06.403Z,4.70
2019-05-06T11:18:42.584Z,3.98
2019-05-06T11:21:16.314Z,4.92
2019-05-06T11:23:52.497Z,4.10
2019-05-06T11:26:26.724Z,4.35
2019-05-06T11:29:05.278Z,4.00
2019-05-06T11:31:48.220Z,4.12
2019-05-06T11:34:38.613Z,4.55
2019-05-06T11:37:50.105Z,4.53
2019-05-06T11:40:19.877Z,3.90
2019-05-06T11:42:54.090Z,4.58
2019-05-06T11:45:28.463Z,4.20
2019-05-06T11:48:03.683Z,4.03
2019-05-06T11:50:38.750Z,4.28
2019-05-06T11:53:13.180Z,4.08
2019-05-06T11:55:47.463Z,3.70
2019-05-06T11:58:59.057Z,4.40
2019-05-06T12:01:53.353Z,4.33
2019-05-06T12:04:28.786Z,3.83
2019-05-06T12:07:11.176Z,4.05
2019-05-06T12:09:39.247Z,3.83
2019-05-06T12:12:13.427Z,3.80
2019-05-06T12:14:47.578Z,4.53
2019-05-06T12:17:22.275Z,4.10
2019-05-06T12:19:56.723Z,4.45
2019-05-06T12:22:42.168Z,4.20
2019-05-06T12:25:17.921Z,4.12
2019-05-06T12:27:52.772Z,5.10
2019-05-06T12:30:27.607Z,4.33
2019-05-06T12:33:35.948Z,4.80
2019-05-06T12:36:23.598Z,4.75
2019-05-06T12:39:18.695Z,5.25
2019-05-06T12:42:10.051Z,5.35
2019-05-06T12:45:03.870Z,5.60
2019-05-06T12:48:03.056Z,5.22
2019-05-06T12:50:38.143Z,6.40
2019-05-06T12:53:13.302Z,5.62
2019-05-06T12:55:48.091Z,5.72
2019-05-06T12:58:23.379Z,5.75
2019-05-06T13:00:58.311Z,6.47
2019-05-06T13:03:34.675Z,5.50
2019-05-06T13:06:09.365Z,5.58
2019-05-06T13:08:56.701Z,5.30
2019-05-06T13:11:20.150Z,5.33
2019-05-06T13:14:00.360Z,5.12
2019-05-06T13:16:33.229Z,5.80
2019-05-06T13:19:06.566Z,5.33
2019-05-06T13:21:42.196Z,5.83
2019-05-06T13:24:17.127Z,5.12
2019-05-06T13:26:52.764Z,5.47
2019-05-06T13:29:34.818Z,5.72
2019-05-06T13:32:08.678Z,5.92
2019-05-06T13:34:43.113Z,6.40
2019-05-06T13:37:17.614Z,5.90
2019-05-06T13:39:52.923Z,5.92
2019-05-06T13:42:29.329Z,5.85
2019-05-06T13:45:03.627Z,5.70
2019-05-06T13:47:55.074Z,6.50
2019-05-06T13:50:32.820Z,6.10
2019-05-06T13:53:11.524Z,6.50
2019-05-06T13:55:42.989Z,7.05
2019-05-06T13:58:17.390Z,6.70
2019-05-06T14:00:52.035Z,7.40
2019-05-06T14:03:26.405Z,7.80
2019-05-06T14:06:02.855Z,7.28
2019-05-06T14:08:36.410Z,7.60
2019-05-06T14:11:13.108Z,7.65
2019-05-06T14:13:46.819Z,8.18
2019-05-06T14:16:24.440Z,7.92
2019-05-06T14:18:57.926Z,7.00
2019-05-06T14:21:32.573Z,7.50
2019-05-06T14:24:09.205Z,6.80
2019-05-06T14:26:49.590Z,7.20
2019-05-06T14:29:29.064Z,7.90
2019-05-06T14:32:03.585Z,7.17
2019-05-06T14:34:37.855Z,7.87
2019-05-06T14:37:11.964Z,8.18
2019-05-06T14:39:55.510Z,8.08
2019-05-06T14:42:25.533Z,8.48
2019-05-06T14:44:59.835Z,9.40
2019-05-06T14:47:36.780Z,8.35
2019-05-06T14:50:14.493Z,8.78
2019-05-06T14:52:47.209Z,9.55
2019-05-06T14:55:26.340Z,10.03
2019-05-06T14:58:04.284Z,9.88
2019-05-06T15:00:36.557Z,10.65
2019-05-06T15:03:12.918Z,8.98
2019-05-06T15:05:47.272Z,9.53
2019-05-06T15:08:22.504Z,8.95
2019-05-06T15:10:56.890Z,9.45
2019-05-06T15:13:33.208Z,9.40
2019-05-06T15:16:07.452Z,9.75
2019-05-06T15:18:42.467Z,9.40
2019-05-06T15:21:33.741Z,8.95
2019-05-06T15:23:53.071Z,9.05
2019-05-06T15:26:27.424Z,9.53
2019-05-06T15:29:03.365Z,9.45
2019-05-06T15:31:58.944Z,8.73
2019-05-06T15:34:56.147Z,8.93
2019-05-06T15:37:36.957Z,8.95
2019-05-06T15:40:12.170Z,9.18
2019-05-06T15:42:46.893Z,9.58
2019-05-06T15:45:21.873Z,9.58
2019-05-06T15:47:55.941Z,9.10
2019-05-06T15:50:32.814Z,9.88
2019-05-06T15:53:06.465Z,10.55
2019-05-06T15:55:43.693Z,10.70
2019-05-06T15:58:18.381Z,10.65
2019-05-06T16:00:53.276Z,10.53
2019-05-06T16:03:27.760Z,11.40
2019-05-06T16:06:02.084Z,12.18
2019-05-06T16:08:38.197Z,12.43
2019-05-06T16:11:12.614Z,12.90
2019-05-06T16:13:47.256Z,13.38
2019-05-06T16:16:22.827Z,13.55
2019-05-06T16:18:57.282Z,13.72
2019-05-06T16:21:35.105Z,13.83
2019-05-06T16:24:23.889Z,13.38
2019-05-06T16:26:58.448Z,14.40
